Aérodrome :
LOGIN :

S'inscrire | Disclaimer

   EN    FR    IT 

 










Légende :    VFR   VFR Marginal   IFR   IFR Intensif   IFR Très Intensif
Visi : 
Plafond : 
>= 8 km
>= 3000ft
5 à 8 km
1000 à 3000 ft
1500m à 5 km
500 à 1000 ft
800 à 1500m
200 à 500 ft
< 800m
< 200 ft
Symboles :   Orages  Brouillard  Fortes neiges  Fortes précipitations  Vent > 20 kt
SIGMETs :   Divers  Orages  Givrage  Turbulence  Onde Orograph.  Cendres Volcan.






- Altitude de l'aérodrome : 14 ft
- Code IATA : BRE


EDDW - Bremen Neuenland

DERNIER METAR :
  • 030050Z 09005KT CAVOK 16/10 Q1009

METARs EXPIRÉS :
  • 030020Z 09004KT CAVOK 16/10 Q1009
  • 022350Z 09005KT CAVOK 16/10 Q1009
  • 022320Z 08007KT CAVOK 16/10 Q1010
  • 022250Z 07006KT CAVOK 17/11 Q1010
  • 022220Z 05005KT CAVOK 18/11 Q1010

TAF TAF EDDW
Valide du 03 à 00h jusqu'au 04 à 00h UTC


022300Z 0300/0324 08004KT CAVOK
TEMPO 0306/0324 13009KT FEW060CB
PROB30
TEMPO 0307/0309 SHRA
PROB30
TEMPO 0315/0317 TSRA



MET'MAP, la Météo Aéronautique d'un coup d'oeil ! - Copyright ORBIFLY Décembre 2007 - Disclaimer

ORBIFLY MET'MAP TEAM :

Programmation & Développement : Alexandra Zaïnal
Sur une idée originale de : Baudouin d'Aumeries
Assistance à la programmation : Marc-Olivier Méhu
Soutien technique & logistique : Manuel Goepfert

Contact : metmap@orbifly.com




SOURCES & CREDITS :

   NOAA